Terminal Aerodrome Forecast
Issued by NWS

Home | Current Version | Previous Version | Text Only | Print | Product List | Glossary On
Versions: 1 2 3 4 5 6 7 8 9 10 11 12
692
FTUS42 TJSJ 221134
TAFJMZ
TAF
TJMZ 221134Z 2212/2312 07006KT P6SM SCT040 BKN200
     FM221450 26007KT P6SM SCT030 SCT200
     FM221700 29011KT P6SM VCSH SCT025 BKN050
     FM222200 07005KT P6SM SCT040
      AMD NOT SKED TIL 221500=

USA.gov is the U.S. government's official web portal to all federal, state and local government web resources and services.